sensor_id;sensor_type;location;lat;lon;timestamp;pressure;altitude;pressure_sealevel;temperature;humidity
62290;BME280;48284;46.828;29.480;2022-10-16T00:01:30;102300.16;;;22.77;56.33
62290;BME280;48284;46.828;29.480;2022-10-16T00:04:00;102309.63;;;22.78;56.40
62290;BME280;48284;46.828;29.480;2022-10-16T00:06:30;102301.34;;;22.75;56.09
62290;BME280;48284;46.828;29.480;2022-10-16T00:09:00;102300.78;;;22.79;56.33
62290;BME280;48284;46.828;29.480;2022-10-16T00:11:30;102293.94;;;22.78;56.01
62290;BME280;48284;46.828;29.480;2022-10-16T00:14:03;102300.78;;;22.79;56.06
62290;BME280;48284;46.828;29.480;2022-10-16T00:16:33;102310.91;;;22.82;56.48
62290;BME280;48284;46.828;29.480;2022-10-16T00:19:02;102308.28;;;22.82;56.46
62290;BME280;48284;46.828;29.480;2022-10-16T00:21:31;102302.06;;;22.83;55.72
62290;BME280;48284;46.828;29.480;2022-10-16T00:24:20;102307.47;;;22.82;55.49
62290;BME280;48284;46.828;29.480;2022-10-16T00:26:49;102301.88;;;22.85;55.95
62290;BME280;48284;46.828;29.480;2022-10-16T00:29:18;102297.63;;;22.84;55.55
62290;BME280;48284;46.828;29.480;2022-10-16T00:31:46;102305.31;;;22.85;55.48
62290;BME280;48284;46.828;29.480;2022-10-16T00:34:15;102300.44;;;22.82;55.43
62290;BME280;48284;46.828;29.480;2022-10-16T00:36:43;102301.25;;;22.83;54.96
62290;BME280;48284;46.828;29.480;2022-10-16T00:39:12;102304.22;;;22.80;54.67
62290;BME280;48284;46.828;29.480;2022-10-16T00:41:42;102309.28;;;22.81;54.38
62290;BME280;48284;46.828;29.480;2022-10-16T00:44:46;102301.44;;;22.81;54.80
62290;BME280;48284;46.828;29.480;2022-10-16T00:47:19;102306.84;;;22.80;55.06
62290;BME280;48284;46.828;29.480;2022-10-16T00:49:50;102311.91;;;22.81;55.25
62290;BME280;48284;46.828;29.480;2022-10-16T00:52:20;102315.69;;;22.79;55.39
62290;BME280;48284;46.828;29.480;2022-10-16T00:54:49;102312.25;;;22.78;55.69
62290;BME280;48284;46.828;29.480;2022-10-16T00:57:19;102313.88;;;22.79;55.17
62290;BME280;48284;46.828;29.480;2022-10-16T00:59:48;102315.69;;;22.79;55.56
62290;BME280;48284;46.828;29.480;2022-10-16T01:02:17;102314.88;;;22.78;55.92
62290;BME280;48284;46.828;29.480;2022-10-16T01:04:48;102315.88;;;22.77;55.42
62290;BME280;48284;46.828;29.480;2022-10-16T01:07:25;102321.09;;;22.77;55.72
62290;BME280;48284;46.828;29.480;2022-10-16T01:10:07;102318.84;;;22.74;54.87
62290;BME280;48284;46.828;29.480;2022-10-16T01:12:45;102326.91;;;22.72;54.86
62290;BME280;48284;46.828;29.480;2022-10-16T01:15:19;102321.84;;;22.71;54.81
62290;BME280;48284;46.828;29.480;2022-10-16T01:17:57;102321.03;;;22.70;55.44
62290;BME280;48284;46.828;29.480;2022-10-16T01:20:31;102320.03;;;22.71;54.25
62290;BME280;48284;46.828;29.480;2022-10-16T01:23:16;102323.03;;;22.68;54.07
62290;BME280;48284;46.828;29.480;2022-10-16T01:26:10;102323.41;;;22.65;53.89
62290;BME280;48284;46.828;29.480;2022-10-16T01:28:49;102319.53;;;22.61;53.88
62290;BME280;48284;46.828;29.480;2022-10-16T01:31:23;102316.91;;;22.61;53.14
62290;BME280;48284;46.828;29.480;2022-10-16T01:33:57;102324.75;;;22.61;53.55
62290;BME280;48284;46.828;29.480;2022-10-16T01:36:35;102317.91;;;22.60;53.22
62290;BME280;48284;46.828;29.480;2022-10-16T01:39:08;102323.31;;;22.59;53.45
62290;BME280;48284;46.828;29.480;2022-10-16T01:41:43;102329.38;;;22.59;53.46
62290;BME280;48284;46.828;29.480;2022-10-16T01:44:16;102324.31;;;22.58;53.03
62290;BME280;48284;46.828;29.480;2022-10-16T01:46:48;102325.94;;;22.59;53.98
62290;BME280;48284;46.828;29.480;2022-10-16T01:49:18;102321.50;;;22.59;53.46
62290;BME280;48284;46.828;29.480;2022-10-16T01:51:52;102323.50;;;22.57;53.20
62290;BME280;48284;46.828;29.480;2022-10-16T01:54:23;102326.13;;;22.57;52.93
62290;BME280;48284;46.828;29.480;2022-10-16T01:56:54;102336.78;;;22.56;53.23
62290;BME280;48284;46.828;29.480;2022-10-16T01:59:27;102333.50;;;22.54;53.29
62290;BME280;48284;46.828;29.480;2022-10-16T02:02:00;102336.94;;;22.54;52.66
62290;BME280;48284;46.828;29.480;2022-10-16T02:04:33;102344.78;;;22.54;52.49
62290;BME280;48284;46.828;29.480;2022-10-16T02:07:02;102348.38;;;22.53;52.92
62290;BME280;48284;46.828;29.480;2022-10-16T02:09:33;102346.94;;;22.51;53.06
62290;BME280;48284;46.828;29.480;2022-10-16T02:12:06;102350.56;;;22.50;53.07
62290;BME280;48284;46.828;29.480;2022-10-16T02:14:39;102347.94;;;22.50;52.83
62290;BME280;48284;46.828;29.480;2022-10-16T02:17:13;102349.75;;;22.49;52.56
62290;BME280;48284;46.828;29.480;2022-10-16T02:19:42;102355.97;;;22.48;52.47
62290;BME280;48284;46.828;29.480;2022-10-16T02:22:16;102354.34;;;22.47;52.94
62290;BME280;48284;46.828;29.480;2022-10-16T02:24:51;102357.16;;;22.46;52.75
62290;BME280;48284;46.828;29.480;2022-10-16T02:27:26;102360.75;;;22.45;53.17
62290;BME280;48284;46.828;29.480;2022-10-16T02:30:02;102365.19;;;22.44;53.02
62290;BME280;48284;46.828;29.480;2022-10-16T02:32:37;102363.91;;;22.40;52.63
62290;BME280;48284;46.828;29.480;2022-10-16T02:35:08;102365.53;;;22.41;52.62
62290;BME280;48284;46.828;29.480;2022-10-16T02:37:38;102372.59;;;22.40;53.13
62290;BME280;48284;46.828;29.480;2022-10-16T02:40:10;102374.38;;;22.40;53.13
62290;BME280;48284;46.828;29.480;2022-10-16T02:42:40;102376.00;;;22.41;53.07
62290;BME280;48284;46.828;29.480;2022-10-16T02:45:11;102380.63;;;22.39;52.86
62290;BME280;48284;46.828;29.480;2022-10-16T02:47:39;102374.56;;;22.38;52.87
62290;BME280;48284;46.828;29.480;2022-10-16T02:50:08;102382.59;;;22.37;52.37
62290;BME280;48284;46.828;29.480;2022-10-16T02:52:37;102387.19;;;22.35;52.89
62290;BME280;48284;46.828;29.480;2022-10-16T02:55:06;102389.00;;;22.34;52.69
62290;BME280;48284;46.828;29.480;2022-10-16T02:57:34;102393.25;;;22.35;52.55
62290;BME280;48284;46.828;29.480;2022-10-16T03:00:04;102398.47;;;22.35;52.37
62290;BME280;48284;46.828;29.480;2022-10-16T03:02:35;102384.75;;;22.33;52.86
62290;BME280;48284;46.828;29.480;2022-10-16T03:05:04;102389.38;;;22.31;52.86
62290;BME280;48284;46.828;29.480;2022-10-16T03:07:33;102385.13;;;22.30;52.26
62290;BME280;48284;46.828;29.480;2022-10-16T03:10:01;102388.75;;;22.29;52.71
62290;BME280;48284;46.828;29.480;2022-10-16T03:12:30;102398.38;;;22.29;52.56
62290;BME280;48284;46.828;29.480;2022-10-16T03:14:58;102402.00;;;22.28;52.47
62290;BME280;48284;46.828;29.480;2022-10-16T03:17:29;102402.81;;;22.28;52.60
62290;BME280;48284;46.828;29.480;2022-10-16T03:19:59;102411.81;;;22.26;52.88
62290;BME280;48284;46.828;29.480;2022-10-16T03:22:29;102409.22;;;22.26;52.84
62290;BME280;48284;46.828;29.480;2022-10-16T03:24:57;102408.41;;;22.25;52.68
62290;BME280;48284;46.828;29.480;2022-10-16T03:27:26;102410.19;;;22.25;52.71
62290;BME280;48284;46.828;29.480;2022-10-16T03:29:55;102408.56;;;22.24;52.77
62290;BME280;48284;46.828;29.480;2022-10-16T03:32:24;102414.81;;;22.23;52.32
62290;BME280;48284;46.828;29.480;2022-10-16T03:34:52;102414.81;;;22.23;52.69
62290;BME280;48284;46.828;29.480;2022-10-16T03:37:22;102411.56;;;22.21;52.15
62290;BME280;48284;46.828;29.480;2022-10-16T03:39:52;102415.97;;;22.20;52.22
62290;BME280;48284;46.828;29.480;2022-10-16T03:42:20;102417.59;;;22.21;52.73
62290;BME280;48284;46.828;29.480;2022-10-16T03:44:49;102411.72;;;22.19;52.75
62290;BME280;48284;46.828;29.480;2022-10-16T03:47:17;102409.13;;;22.19;52.07
62290;BME280;48284;46.828;29.480;2022-10-16T03:49:49;102412.53;;;22.20;52.28
62290;BME280;48284;46.828;29.480;2022-10-16T03:52:17;102410.91;;;22.19;52.60
62290;BME280;48284;46.828;29.480;2022-10-16T03:54:47;102407.69;;;22.17;51.97
62290;BME280;48284;46.828;29.480;2022-10-16T03:57:16;102409.47;;;22.16;52.15
62290;BME280;48284;46.828;29.480;2022-10-16T03:59:44;102419.13;;;22.16;52.37
62290;BME280;48284;46.828;29.480;2022-10-16T04:02:13;102421.75;;;22.16;51.95
62290;BME280;48284;46.828;29.480;2022-10-16T04:04:41;102420.13;;;22.15;52.45
62290;BME280;48284;46.828;29.480;2022-10-16T04:07:10;102422.72;;;22.15;52.22
62290;BME280;48284;46.828;29.480;2022-10-16T04:09:38;102422.91;;;22.13;52.24
62290;BME280;48284;46.828;29.480;2022-10-16T04:12:08;102420.28;;;22.13;51.80
62290;BME280;48284;46.828;29.480;2022-10-16T04:14:37;102428.94;;;22.14;51.91
62290;BME280;48284;46.828;29.480;2022-10-16T04:17:05;102425.72;;;22.12;51.92
62290;BME280;48284;46.828;29.480;2022-10-16T04:19:33;102427.50;;;22.11;52.28
62290;BME280;48284;46.828;29.480;2022-10-16T04:22:02;102422.28;;;22.11;52.21
62290;BME280;48284;46.828;29.480;2022-10-16T04:24:30;102419.03;;;22.09;52.00
62290;BME280;48284;46.828;29.480;2022-10-16T04:26:59;102426.25;;;22.07;52.15
62290;BME280;48284;46.828;29.480;2022-10-16T04:29:29;102424.44;;;22.07;51.86
62290;BME280;48284;46.828;29.480;2022-10-16T04:31:57;102428.03;;;22.06;52.04
62290;BME280;48284;46.828;29.480;2022-10-16T04:34:26;102435.88;;;22.06;52.09
62290;BME280;48284;46.828;29.480;2022-10-16T04:36:54;102435.28;;;22.19;51.86
62290;BME280;48284;46.828;29.480;2022-10-16T04:39:23;102439.88;;;22.32;50.88
62290;BME280;48284;46.828;29.480;2022-10-16T04:41:51;102438.16;;;22.39;50.96
62290;BME280;48284;46.828;29.480;2022-10-16T04:44:19;102443.03;;;22.42;50.97
62290;BME280;48284;46.828;29.480;2022-10-16T04:46:51;102441.59;;;22.39;51.09
62290;BME280;48284;46.828;29.480;2022-10-16T04:49:20;102445.03;;;22.40;50.87
62290;BME280;48284;46.828;29.480;2022-10-16T04:51:48;102443.59;;;22.37;50.83
62290;BME280;48284;46.828;29.480;2022-10-16T04:54:17;102444.75;;;22.35;50.72
62290;BME280;48284;46.828;29.480;2022-10-16T04:56:45;102446.75;;;22.33;51.11
62290;BME280;48284;46.828;29.480;2022-10-16T04:59:14;102451.25;;;22.24;51.13
62290;BME280;48284;46.828;29.480;2022-10-16T05:01:43;102458.28;;;22.24;51.40
62290;BME280;48284;46.828;29.480;2022-10-16T05:04:13;102464.31;;;22.24;50.96
62290;BME280;48284;46.828;29.480;2022-10-16T05:06:42;102466.28;;;22.22;51.13
62290;BME280;48284;46.828;29.480;2022-10-16T05:09:10;102472.34;;;22.23;50.94
62290;BME280;48284;46.828;29.480;2022-10-16T05:11:39;102475.94;;;22.22;50.83
62290;BME280;48284;46.828;29.480;2022-10-16T05:14:07;102472.69;;;22.20;51.40
62290;BME280;48284;46.828;29.480;2022-10-16T05:16:37;102481.53;;;22.19;51.43
62290;BME280;48284;46.828;29.480;2022-10-16T05:19:05;102483.50;;;22.17;50.91
62290;BME280;48284;46.828;29.480;2022-10-16T05:21:55;102479.44;;;22.14;51.30
62290;BME280;48284;46.828;29.480;2022-10-16T05:24:23;102480.44;;;22.13;51.51
62290;BME280;48284;46.828;29.480;2022-10-16T05:26:52;102482.25;;;22.13;51.23
62290;BME280;48284;46.828;29.480;2022-10-16T05:29:21;102480.81;;;22.10;51.19
62290;BME280;48284;46.828;29.480;2022-10-16T05:31:51;102479.97;;;22.09;51.08
62290;BME280;48284;46.828;29.480;2022-10-16T05:34:20;102494.84;;;22.09;51.50
62290;BME280;48284;46.828;29.480;2022-10-16T05:36:48;102496.03;;;22.06;51.14
62290;BME280;48284;46.828;29.480;2022-10-16T05:39:18;102494.22;;;22.07;51.77
62290;BME280;48284;46.828;29.480;2022-10-16T05:41:49;102505.84;;;22.04;51.57
62290;BME280;48284;46.828;29.480;2022-10-16T05:44:18;102509.44;;;22.03;51.30
62290;BME280;48284;46.828;29.480;2022-10-16T05:46:47;102513.88;;;22.03;51.58
62290;BME280;48284;46.828;29.480;2022-10-16T05:49:16;102508.63;;;22.03;51.63
62290;BME280;48284;46.828;29.480;2022-10-16T05:51:44;102501.75;;;22.02;51.56
62290;BME280;48284;46.828;29.480;2022-10-16T05:54:13;102510.41;;;22.02;51.64
62290;BME280;48284;46.828;29.480;2022-10-16T05:56:43;102511.25;;;22.03;51.33
62290;BME280;48284;46.828;29.480;2022-10-16T05:59:11;102512.06;;;22.03;51.28
62290;BME280;48284;46.828;29.480;2022-10-16T06:01:40;102510.59;;;22.01;51.57
62290;BME280;48284;46.828;29.480;2022-10-16T06:04:08;102516.97;;;21.98;51.80
62290;BME280;48284;46.828;29.480;2022-10-16T06:06:42;102524.66;;;22.00;51.80
62290;BME280;48284;46.828;29.480;2022-10-16T06:09:10;102525.47;;;22.00;51.35
62290;BME280;48284;46.828;29.480;2022-10-16T06:11:39;102532.50;;;22.00;51.48
62290;BME280;48284;46.828;29.480;2022-10-16T06:14:09;102533.31;;;22.00;51.55
62290;BME280;48284;46.828;29.480;2022-10-16T06:16:38;102533.13;;;22.02;51.58
62290;BME280;48284;46.828;29.480;2022-10-16T06:19:06;102540.34;;;22.00;51.67
62290;BME280;48284;46.828;29.480;2022-10-16T06:21:36;102541.16;;;22.00;51.71
62290;BME280;48284;46.828;29.480;2022-10-16T06:24:04;102545.75;;;21.98;52.03
62290;BME280;48284;46.828;29.480;2022-10-16T06:26:33;102547.69;;;21.96;51.73
62290;BME280;48284;46.828;29.480;2022-10-16T06:29:01;102558.00;;;21.98;51.45
62290;BME280;48284;46.828;29.480;2022-10-16T06:31:32;102557.81;;;21.99;51.94
62290;BME280;48284;46.828;29.480;2022-10-16T06:34:00;102564.69;;;22.00;52.04
62290;BME280;48284;46.828;29.480;2022-10-16T06:36:29;102560.09;;;22.02;51.80
62290;BME280;48284;46.828;29.480;2022-10-16T06:38:57;102552.91;;;22.04;51.76
62290;BME280;48284;46.828;29.480;2022-10-16T06:41:26;102557.34;;;22.04;51.86
62290;BME280;48284;46.828;29.480;2022-10-16T06:43:54;102554.88;;;22.02;51.58
62290;BME280;48284;46.828;29.480;2022-10-16T06:46:24;102550.47;;;22.03;51.86
62290;BME280;48284;46.828;29.480;2022-10-16T06:48:54;102557.34;;;22.04;51.59
62290;BME280;48284;46.828;29.480;2022-10-16T06:51:23;102555.72;;;22.03;51.66
62290;BME280;48284;46.828;29.480;2022-10-16T06:53:53;102555.72;;;22.03;51.62
62290;BME280;48284;46.828;29.480;2022-10-16T06:56:31;102555.72;;;22.03;51.78
62290;BME280;48284;46.828;29.480;2022-10-16T06:59:01;102554.53;;;22.05;51.65
62290;BME280;48284;46.828;29.480;2022-10-16T07:01:29;102555.19;;;22.07;52.24
62290;BME280;48284;46.828;29.480;2022-10-16T07:04:00;102550.94;;;22.06;51.76
62290;BME280;48284;46.828;29.480;2022-10-16T07:06:32;102557.16;;;22.05;51.69
62290;BME280;48284;46.828;29.480;2022-10-16T07:09:03;102561.41;;;22.06;52.15
62290;BME280;48284;46.828;29.480;2022-10-16T07:11:33;102565.81;;;22.06;52.25
62290;BME280;48284;46.828;29.480;2022-10-16T07:14:02;102575.31;;;21.99;51.91
62290;BME280;48284;46.828;29.480;2022-10-16T07:16:32;102573.19;;;21.94;52.35
62290;BME280;48284;46.828;29.480;2022-10-16T07:19:02;102575.81;;;21.94;52.49
62290;BME280;48284;46.828;29.480;2022-10-16T07:21:33;102573.03;;;21.96;52.87
62290;BME280;48284;46.828;29.480;2022-10-16T07:24:04;102578.75;;;21.99;52.75
62290;BME280;48284;46.828;29.480;2022-10-16T07:26:35;102577.75;;;22.00;52.46
62290;BME280;48284;46.828;29.480;2022-10-16T07:29:04;102586.91;;;22.04;52.31
62290;BME280;48284;46.828;29.480;2022-10-16T07:31:32;102579.06;;;22.04;52.86
62290;BME280;48284;46.828;29.480;2022-10-16T07:34:02;102578.72;;;22.07;52.79
62290;BME280;48284;46.828;29.480;2022-10-16T07:36:31;102589.00;;;22.09;53.01
62290;BME280;48284;46.828;29.480;2022-10-16T07:39:00;102583.59;;;22.11;53.25
62290;BME280;48284;46.828;29.480;2022-10-16T07:41:28;102586.50;;;22.16;53.19
62290;BME280;48284;46.828;29.480;2022-10-16T07:43:57;102590.22;;;22.21;53.82
62290;BME280;48284;46.828;29.480;2022-10-16T07:46:27;102579.22;;;22.26;53.54
62290;BME280;48284;46.828;29.480;2022-10-16T07:48:56;102582.31;;;22.29;53.68
62290;BME280;48284;46.828;29.480;2022-10-16T07:51:26;102583.56;;;22.33;53.39
62290;BME280;48284;46.828;29.480;2022-10-16T07:53:55;102576.00;;;22.38;53.51
62290;BME280;48284;46.828;29.480;2022-10-16T07:56:24;102576.28;;;22.44;53.98
62290;BME280;48284;46.828;29.480;2022-10-16T07:58:53;102570.72;;;22.47;53.82
62290;BME280;48284;46.828;29.480;2022-10-16T08:01:21;102574.94;;;22.48;54.04
62290;BME280;48284;46.828;29.480;2022-10-16T08:03:51;102575.41;;;22.51;53.74
62290;BME280;48284;46.828;29.480;2022-10-16T08:06:21;102575.03;;;22.54;53.58
62290;BME280;48284;46.828;29.480;2022-10-16T08:08:56;102573.91;;;22.57;53.47
62290;BME280;48284;46.828;29.480;2022-10-16T08:11:26;102577.97;;;22.59;53.85
62290;BME280;48284;46.828;29.480;2022-10-16T08:13:55;102587.28;;;22.62;53.51
62290;BME280;48284;46.828;29.480;2022-10-16T08:16:23;102575.81;;;22.63;53.84
62290;BME280;48284;46.828;29.480;2022-10-16T08:18:52;102583.31;;;22.66;53.69
62290;BME280;48284;46.828;29.480;2022-10-16T08:21:21;102582.94;;;22.69;54.05
62290;BME280;48284;46.828;29.480;2022-10-16T08:23:50;102587.81;;;22.72;53.64
62290;BME280;48284;46.828;29.480;2022-10-16T08:26:26;102598.75;;;22.76;54.09
62290;BME280;48284;46.828;29.480;2022-10-16T08:28:55;102594.31;;;22.76;53.68
62290;BME280;48284;46.828;29.480;2022-10-16T08:31:24;102597.13;;;22.75;54.25
62290;BME280;48284;46.828;29.480;2022-10-16T08:33:53;102605.16;;;22.73;54.09
62290;BME280;48284;46.828;29.480;2022-10-16T08:36:21;102593.53;;;22.76;54.22
62290;BME280;48284;46.828;29.480;2022-10-16T08:38:50;102599.09;;;22.72;53.85
62290;BME280;48284;46.828;29.480;2022-10-16T08:41:59;102587.19;;;22.70;53.99
62290;BME280;48284;46.828;29.480;2022-10-16T08:44:44;102582.69;;;22.64;54.05
62290;BME280;48284;46.828;29.480;2022-10-16T08:47:23;102580.22;;;22.62;54.05
62290;BME280;48284;46.828;29.480;2022-10-16T08:49:57;102576.00;;;22.61;54.00
62290;BME280;48284;46.828;29.480;2022-10-16T08:52:29;102577.63;;;22.62;53.98
62290;BME280;48284;46.828;29.480;2022-10-16T08:55:00;102577.78;;;22.61;54.13
62290;BME280;48284;46.828;29.480;2022-10-16T08:57:30;102580.22;;;22.62;53.52
62290;BME280;48284;46.828;29.480;2022-10-16T09:00:08;102573.38;;;22.61;53.68
62290;BME280;48284;46.828;29.480;2022-10-16T09:02:47;102573.38;;;22.61;53.50
62290;BME280;48284;46.828;29.480;2022-10-16T09:05:24;102576.63;;;22.63;53.50
62290;BME280;48284;46.828;29.480;2022-10-16T09:08:03;102576.00;;;22.61;53.02
62290;BME280;48284;46.828;29.480;2022-10-16T09:10:47;102570.13;;;22.59;52.93
62290;BME280;48284;46.828;29.480;2022-10-16T09:13:24;102576.81;;;22.62;53.31
62290;BME280;48284;46.828;29.480;2022-10-16T09:16:14;102580.41;;;22.61;53.27
62290;BME280;48284;46.828;29.480;2022-10-16T09:18:49;102577.97;;;22.59;53.32
62290;BME280;48284;46.828;29.480;2022-10-16T09:21:22;102578.44;;;22.63;52.63
62290;BME280;48284;46.828;29.480;2022-10-16T09:23:52;102580.06;;;22.64;52.76
62290;BME280;48284;46.828;29.480;2022-10-16T09:26:22;102575.47;;;22.66;53.09
62290;BME280;48284;46.828;29.480;2022-10-16T09:28:57;102568.94;;;22.62;52.81
62290;BME280;48284;46.828;29.480;2022-10-16T09:31:25;102572.38;;;22.62;52.83
62290;BME280;48284;46.828;29.480;2022-10-16T09:33:58;102571.22;;;22.65;52.41
62290;BME280;48284;46.828;29.480;2022-10-16T09:36:29;102571.22;;;22.65;52.28
62290;BME280;48284;46.828;29.480;2022-10-16T09:39:03;102575.81;;;22.63;52.42
62290;BME280;48284;46.828;29.480;2022-10-16T09:41:34;102575.19;;;22.61;52.66
62290;BME280;48284;46.828;29.480;2022-10-16T09:44:13;102566.88;;;22.57;52.28
62290;BME280;48284;46.828;29.480;2022-10-16T09:46:44;102573.28;;;22.55;52.44
62290;BME280;48284;46.828;29.480;2022-10-16T09:49:21;102564.75;;;22.53;52.85
62290;BME280;48284;46.828;29.480;2022-10-16T09:52:02;102565.56;;;22.53;52.42
62290;BME280;48284;46.828;29.480;2022-10-16T09:54:31;102561.31;;;22.52;52.63
62290;BME280;48284;46.828;29.480;2022-10-16T09:57:07;102555.09;;;22.53;52.23
62290;BME280;48284;46.828;29.480;2022-10-16T09:59:46;102550.53;;;22.55;52.70
62290;BME280;48284;46.828;29.480;2022-10-16T10:02:16;102554.59;;;22.58;52.09
62290;BME280;48284;46.828;29.480;2022-10-16T10:04:49;102543.31;;;22.57;52.20
62290;BME280;48284;46.828;29.480;2022-10-16T10:07:24;102544.31;;;22.56;52.24
62290;BME280;48284;46.828;29.480;2022-10-16T10:09:56;102541.50;;;22.58;51.90
62290;BME280;48284;46.828;29.480;2022-10-16T10:12:26;102532.50;;;22.60;51.76
62290;BME280;48284;46.828;29.480;2022-10-16T10:15:03;102532.94;;;22.64;51.64
62290;BME280;48284;46.828;29.480;2022-10-16T10:17:32;102532.13;;;22.63;52.29
62290;BME280;48284;46.828;29.480;2022-10-16T10:20:22;102535.75;;;22.62;51.78
62290;BME280;48284;46.828;29.480;2022-10-16T10:22:51;102537.38;;;22.63;51.84
62290;BME280;48284;46.828;29.480;2022-10-16T10:25:32;102529.50;;;22.63;51.76
62290;BME280;48284;46.828;29.480;2022-10-16T10:28:20;102528.53;;;22.64;52.09
62290;BME280;48284;46.828;29.480;2022-10-16T10:30:55;102519.94;;;22.56;51.94
62290;BME280;48284;46.828;29.480;2022-10-16T10:33:29;102521.03;;;22.61;51.94
62290;BME280;48284;46.828;29.480;2022-10-16T10:36:06;102517.25;;;22.64;51.39
62290;BME280;48284;46.828;29.480;2022-10-16T10:38:42;102512.81;;;22.64;51.45
62290;BME280;48284;46.828;29.480;2022-10-16T10:44:37;102512.00;;;22.64;51.80
62290;BME280;48284;46.828;29.480;2022-10-16T10:47:20;102514.44;;;22.65;51.86
62290;BME280;48284;46.828;29.480;2022-10-16T10:49:59;102515.06;;;22.67;51.36
62290;BME280;48284;46.828;29.480;2022-10-16T10:52:38;102515.72;;;22.69;51.63
62290;BME280;48284;46.828;29.480;2022-10-16T10:55:15;102514.91;;;22.69;51.39
62290;BME280;48284;46.828;29.480;2022-10-16T11:00:52;102502.81;;;22.68;51.21
62290;BME280;48284;46.828;29.480;2022-10-16T11:03:37;102500.00;;;22.69;50.94
62290;BME280;48284;46.828;29.480;2022-10-16T11:06:12;102497.38;;;22.69;51.43
62290;BME280;48284;46.828;29.480;2022-10-16T11:08:48;102492.78;;;22.71;51.07
62290;BME280;48284;46.828;29.480;2022-10-16T11:11:27;102495.22;;;22.73;50.81
62290;BME280;48284;46.828;29.480;2022-10-16T11:14:00;102487.56;;;22.71;50.71
62290;BME280;48284;46.828;29.480;2022-10-16T11:16:34;102494.41;;;22.72;51.24
62290;BME280;48284;46.828;29.480;2022-10-16T11:19:11;102498.03;;;22.71;51.09
62290;BME280;48284;46.828;29.480;2022-10-16T11:21:46;102502.25;;;22.72;51.27
62290;BME280;48284;46.828;29.480;2022-10-16T11:24:21;102492.78;;;22.71;51.04
62290;BME280;48284;46.828;29.480;2022-10-16T11:26:54;102490.16;;;22.71;50.89
62290;BME280;48284;46.828;29.480;2022-10-16T11:29:27;102486.75;;;22.71;50.90
62290;BME280;48284;46.828;29.480;2022-10-16T11:32:00;102479.88;;;22.70;50.69
62290;BME280;48284;46.828;29.480;2022-10-16T11:34:38;102483.50;;;22.69;50.69
62290;BME280;48284;46.828;29.480;2022-10-16T11:37:12;102482.69;;;22.68;51.33
62290;BME280;48284;46.828;29.480;2022-10-16T11:39:44;102481.69;;;22.69;51.33
62290;BME280;48284;46.828;29.480;2022-10-16T11:42:18;102480.25;;;22.67;51.27
62290;BME280;48284;46.828;29.480;2022-10-16T11:44:54;102480.25;;;22.67;51.34
62290;BME280;48284;46.828;29.480;2022-10-16T11:47:34;102483.66;;;22.67;51.31
62290;BME280;48284;46.828;29.480;2022-10-16T11:50:28;102477.44;;;22.68;51.01
62290;BME280;48284;46.828;29.480;2022-10-16T11:53:01;102473.66;;;22.71;51.16
62290;BME280;48284;46.828;29.480;2022-10-16T11:55:34;102475.28;;;22.72;51.05
62290;BME280;48284;46.828;29.480;2022-10-16T11:58:16;102472.84;;;22.70;51.12
62290;BME280;48284;46.828;29.480;2022-10-16T12:00:53;102478.81;;;22.64;50.99
62290;BME280;48284;46.828;29.480;2022-10-16T12:03:27;102480.97;;;22.61;51.09
62290;BME280;48284;46.828;29.480;2022-10-16T12:06:06;102482.94;;;22.59;51.37
62290;BME280;48284;46.828;29.480;2022-10-16T12:08:39;102488.19;;;22.59;50.84
62290;BME280;48284;46.828;29.480;2022-10-16T12:11:08;102490.03;;;22.50;51.53
62290;BME280;48284;46.828;29.480;2022-10-16T12:13:39;102490.50;;;22.54;51.13
62290;BME280;48284;46.828;29.480;2022-10-16T12:16:23;102481.84;;;22.53;51.01
62290;BME280;48284;46.828;29.480;2022-10-16T12:19:08;102488.06;;;22.52;51.32
62290;BME280;48284;46.828;29.480;2022-10-16T12:21:40;102490.69;;;22.52;51.97
62290;BME280;48284;46.828;29.480;2022-10-16T12:24:29;102492.97;;;22.55;51.78
62290;BME280;48284;46.828;29.480;2022-10-16T12:27:00;102489.34;;;22.56;51.39
62290;BME280;48284;46.828;29.480;2022-10-16T12:29:33;102498.66;;;22.59;51.87
62290;BME280;48284;46.828;29.480;2022-10-16T12:32:04;102499.09;;;22.62;51.34
62290;BME280;48284;46.828;29.480;2022-10-16T12:34:39;102501.34;;;22.65;51.29
62290;BME280;48284;46.828;29.480;2022-10-16T12:37:14;102504.59;;;22.67;51.27
62290;BME280;48284;46.828;29.480;2022-10-16T12:39:47;102506.88;;;22.70;51.45
62290;BME280;48284;46.828;29.480;2022-10-16T12:42:31;102505.88;;;22.71;51.62
62290;BME280;48284;46.828;29.480;2022-10-16T12:45:00;102510.13;;;22.72;51.64
62290;BME280;48284;46.828;29.480;2022-10-16T12:47:38;102507.50;;;22.72;51.26
62290;BME280;48284;46.828;29.480;2022-10-16T12:50:31;102510.75;;;22.75;51.50
62290;BME280;48284;46.828;29.480;2022-10-16T12:53:03;102509.75;;;22.76;51.49
62290;BME280;48284;46.828;29.480;2022-10-16T12:55:40;102509.75;;;22.76;51.26
62290;BME280;48284;46.828;29.480;2022-10-16T12:58:20;102521.84;;;22.77;51.41
62290;BME280;48284;46.828;29.480;2022-10-16T13:00:56;102517.59;;;22.76;51.62
62290;BME280;48284;46.828;29.480;2022-10-16T13:06:38;102514.97;;;22.76;51.62
62290;BME280;48284;46.828;29.480;2022-10-16T13:09:25;102504.44;;;22.84;51.53
62290;BME280;48284;46.828;29.480;2022-10-16T13:12:07;102502.47;;;22.86;51.58
62290;BME280;48284;46.828;29.480;2022-10-16T13:17:41;102498.66;;;22.88;51.75
62290;BME280;48284;46.828;29.480;2022-10-16T13:20:18;102496.88;;;22.89;51.14